Time;durP1;ratioP1;P1;durP2;ratioP2;P2;SDS_P1;SDS_P2;PMS_P1;PMS_P2;Temp;Humidity;BMP_temperature;BMP_pressure;BME280_temperature;BME280_humidity;BME280_pressure;Samples;Min_cycle;Max_cycle;Signal;HPM_P1;HPM_P2
2022/06/07 00:02:04;;;;;;;5.05;2.22;;;13.00;99.90;;;;;;5095072;28;20538;-77
2022/06/07 00:04:30;;;;;;;4.60;1.50;;;12.90;99.90;;;;;;5095326;28;20111;-77
2022/06/07 00:06:56;;;;;;;5.88;2.35;;;12.90;99.90;;;;;;5076590;28;20044;-77
2022/06/07 00:09:21;;;;;;;4.63;2.55;;;12.90;99.90;;;;;;5076562;28;20035;-77
2022/06/07 00:11:47;;;;;;;3.70;2.13;;;12.90;99.90;;;;;;5094694;28;20061;-77
2022/06/07 00:14:13;;;;;;;3.10;2.40;;;13.30;99.90;;;;;;5095029;28;20020;-77
2022/06/07 00:16:38;;;;;;;5.57;3.10;;;12.90;99.90;;;;;;5094711;28;20383;-78
2022/06/07 00:19:04;;;;;;;3.40;2.13;;;12.90;99.90;;;;;;5095191;28;20099;-77
2022/06/07 00:21:29;;;;;;;7.50;2.70;;;12.90;99.90;;;;;;5076186;28;20078;-77
2022/06/07 00:24:05;;;;;;;5.03;2.60;;;12.90;99.90;;;;;;5076223;28;20012;-77
2022/06/07 00:26:32;;;;;;;7.53;2.97;;;12.90;99.90;;;;;;5076081;28;20085;-77
2022/06/07 00:29:00;;;;;;;5.03;3.20;;;12.90;99.90;;;;;;5094308;28;20012;-78
2022/06/07 00:31:26;;;;;;;5.25;2.83;;;12.90;99.90;;;;;;5076237;28;20024;-77
2022/06/07 00:33:52;;;;;;;7.40;3.33;;;12.90;99.90;;;;;;5094265;28;20062;-77
2022/06/07 00:36:18;;;;;;;5.60;3.17;;;12.90;99.90;;;;;;5094176;28;20039;-77
2022/06/07 00:38:43;;;;;;;4.93;2.83;;;12.90;99.90;;;;;;5094185;28;20028;-77
2022/06/07 00:41:10;;;;;;;6.75;3.10;;;13.00;99.90;;;;;;5076152;28;20054;-77
2022/06/07 00:43:36;;;;;;;7.00;3.17;;;13.00;99.90;;;;;;5075996;28;20028;-77
2022/06/07 00:46:06;;;;;;;7.70;4.28;;;13.00;99.90;;;;;;5075871;28;20218;-77
2022/06/07 00:48:32;;;;;;;4.95;3.00;;;13.10;99.90;;;;;;5094054;28;20039;-77
2022/06/07 00:51:11;;;;;;;6.15;3.50;;;13.00;99.90;;;;;;5094416;28;20027;-77
2022/06/07 00:53:37;;;;;;;6.85;3.72;;;13.10;99.90;;;;;;5075986;28;20024;-77
2022/06/07 00:56:05;;;;;;;5.97;3.38;;;13.10;99.90;;;;;;5094248;28;20115;-75
2022/06/07 00:58:33;;;;;;;10.68;3.42;;;13.10;99.90;;;;;;5075931;28;20487;-75
2022/06/07 01:00:59;;;;;;;5.85;3.22;;;13.10;99.90;;;;;;5094083;28;20099;-76
2022/06/07 01:03:26;;;;;;;5.40;3.00;;;13.10;99.90;;;;;;5094090;28;20047;-75
2022/06/07 01:05:53;;;;;;;5.78;3.20;;;13.10;99.90;;;;;;5093758;28;20024;-76
2022/06/07 01:11:04;;;;;;;7.53;3.08;;;13.10;99.90;;;;;;5094724;28;20156;-76
2022/06/07 01:13:32;;;;;;;6.55;3.25;;;13.10;99.90;;;;;;5093740;28;20051;-76
2022/06/07 01:16:07;;;;;;;5.60;3.15;;;13.10;99.90;;;;;;5093597;28;20049;-76
2022/06/07 01:18:34;;;;;;;7.03;3.33;;;13.00;99.90;;;;;;5075614;28;20020;-76
2022/06/07 01:21:49;;;;;;;7.45;2.85;;;13.30;99.90;;;;;;5075642;28;20047;-76
2022/06/07 01:24:16;;;;;;;5.90;3.13;;;13.00;99.90;;;;;;5070893;28;20442;-76
2022/06/07 01:26:42;;;;;;;3.67;2.42;;;13.00;99.90;;;;;;5092918;28;20030;-76
2022/06/07 01:29:08;;;;;;;4.68;2.78;;;13.00;99.90;;;;;;5093519;28;20023;-76
2022/06/07 01:31:34;;;;;;;5.10;2.75;;;13.90;99.90;;;;;;5075463;28;20031;-75
2022/06/07 01:34:00;;;;;;;6.20;2.75;;;13.00;99.90;;;;;;5093469;28;20103;-74
2022/06/07 01:36:26;;;;;;;4.88;2.70;;;13.00;99.90;;;;;;5075244;28;20037;-74
2022/06/07 01:41:55;;;;;;;6.30;3.15;;;13.00;99.90;;;;;;5094267;28;20553;-74
2022/06/07 01:44:26;;;;;;;9.25;3.97;;;13.00;99.90;;;;;;5093301;28;20456;-74
2022/06/07 01:46:54;;;;;;;6.13;3.35;;;13.00;99.90;;;;;;5075244;28;20530;-74
2022/06/07 01:49:20;;;;;;;6.63;3.38;;;13.00;99.90;;;;;;5093371;28;20093;-74
2022/06/07 01:51:46;;;;;;;6.22;3.53;;;13.00;99.90;;;;;;5075165;28;20024;-74
2022/06/07 01:54:13;;;;;;;6.93;4.22;;;13.00;99.90;;;;;;5093314;28;20488;-74
2022/06/07 01:56:39;;;;;;;7.65;3.60;;;13.60;99.90;;;;;;5075013;28;20059;-74
2022/06/07 01:59:05;;;;;;;6.43;3.72;;;13.00;99.90;;;;;;5093130;28;20023;-74
2022/06/07 02:01:32;;;;;;;8.95;3.40;;;12.90;99.90;;;;;;5075149;28;20032;-74
2022/06/07 02:03:57;;;;;;;7.15;3.78;;;12.90;99.90;;;;;;5075060;28;20115;-74
2022/06/07 02:06:23;;;;;;;7.03;3.78;;;12.90;99.90;;;;;;5093105;28;20469;-74
2022/06/07 02:08:49;;;;;;;6.00;3.15;;;12.90;99.90;;;;;;5093196;28;20077;-74
2022/06/07 02:11:18;;;;;;;5.80;3.03;;;12.90;99.90;;;;;;5093114;28;20099;-74
2022/06/07 02:13:44;;;;;;;8.00;3.65;;;13.00;99.90;;;;;;5093067;28;20098;-74
2022/06/07 02:16:09;;;;;;;7.10;3.38;;;13.00;99.90;;;;;;5093258;28;20035;-74
2022/06/07 02:18:36;;;;;;;4.90;2.83;;;12.90;99.90;;;;;;5093230;28;20419;-74
2022/06/07 02:21:02;;;;;;;7.43;3.67;;;12.90;99.90;;;;;;5092992;28;20036;-74
2022/06/07 02:23:29;;;;;;;8.27;4.25;;;12.90;99.90;;;;;;5074727;28;20020;-74
2022/06/07 02:25:59;;;;;;;8.05;3.95;;;12.90;99.90;;;;;;5093161;28;20056;-74
2022/06/07 02:28:29;;;;;;;9.48;4.32;;;12.90;99.90;;;;;;5092932;28;20388;-74
2022/06/07 02:30:56;;;;;;;7.47;3.63;;;12.90;99.90;;;;;;5074749;28;20531;-74
2022/06/07 02:33:22;;;;;;;7.03;3.92;;;12.90;99.90;;;;;;5074798;28;20066;-74
2022/06/07 02:35:48;;;;;;;9.60;4.97;;;12.90;99.90;;;;;;5092824;28;20028;-73
2022/06/07 02:38:14;;;;;;;8.70;4.22;;;12.90;99.90;;;;;;5074735;28;20025;-74
2022/06/07 02:40:41;;;;;;;9.45;4.30;;;12.90;99.90;;;;;;5078290;28;20403;-75
2022/06/07 02:43:06;;;;;;;11.00;4.00;;;12.90;99.90;;;;;;5078177;28;20078;-75
2022/06/07 02:45:32;;;;;;;9.07;4.90;;;12.90;99.90;;;;;;5078291;28;20063;-75
2022/06/07 02:47:57;;;;;;;7.25;4.25;;;12.90;99.90;;;;;;5096188;28;20028;-74
2022/06/07 02:50:23;;;;;;;8.95;4.75;;;13.30;99.90;;;;;;5096415;28;20495;-74
2022/06/07 02:52:49;;;;;;;10.65;4.78;;;12.90;99.90;;;;;;5096241;28;20052;-74
2022/06/07 02:55:15;;;;;;;8.52;4.80;;;13.00;99.90;;;;;;5096089;28;20050;-75
2022/06/07 02:57:41;;;;;;;9.90;4.85;;;13.00;99.90;;;;;;5078167;28;20016;-74
2022/06/07 03:00:10;;;;;;;6.45;4.15;;;13.00;99.90;;;;;;5096105;28;20027;-74
2022/06/07 03:02:37;;;;;;;11.05;4.95;;;12.90;99.90;;;;;;5095953;28;20041;-74
2022/06/07 03:05:03;;;;;;;7.65;4.47;;;12.90;99.90;;;;;;5096272;28;20388;-74
2022/06/07 03:07:28;;;;;;;10.93;5.50;;;12.90;99.90;;;;;;5095905;28;20020;-74
2022/06/07 03:09:54;;;;;;;11.18;4.57;;;12.90;99.90;;;;;;5077746;28;20016;-74
2022/06/07 03:12:19;;;;;;;7.85;4.78;;;12.90;99.90;;;;;;5095777;28;20494;-74
2022/06/07 03:14:45;;;;;;;11.32;4.97;;;12.90;99.90;;;;;;5077274;28;20063;-74
2022/06/07 03:17:10;;;;;;;9.15;4.63;;;12.90;99.90;;;;;;5077720;28;20501;-74
2022/06/07 03:19:36;;;;;;;6.00;4.13;;;13.00;99.90;;;;;;5095941;28;20024;-74
2022/06/07 03:22:02;;;;;;;9.07;3.88;;;12.90;99.90;;;;;;5095714;28;20032;-74
2022/06/07 03:24:27;;;;;;;10.30;4.55;;;13.00;99.90;;;;;;5095643;28;20032;-74
2022/06/07 03:26:54;;;;;;;8.27;4.47;;;12.90;99.90;;;;;;5096091;28;20024;-74
2022/06/07 03:29:20;;;;;;;7.88;4.65;;;12.90;99.90;;;;;;5096035;28;20024;-74
2022/06/07 03:31:46;;;;;;;10.13;4.55;;;12.90;99.90;;;;;;5095517;28;20019;-74
2022/06/07 03:34:12;;;;;;;8.93;4.07;;;12.90;99.90;;;;;;5095419;28;20024;-74
2022/06/07 03:36:38;;;;;;;9.20;4.65;;;12.80;99.90;;;;;;5095261;28;20024;-77
2022/06/07 03:39:09;;;;;;;9.05;4.55;;;12.80;99.90;;;;;;5096666;28;20437;-79
2022/06/07 03:41:35;;;;;;;12.25;4.93;;;12.80;99.90;;;;;;5077267;28;20024;-77
2022/06/07 03:44:01;;;;;;;9.23;5.07;;;12.80;99.90;;;;;;5095315;28;20465;-77
2022/06/07 03:46:29;;;;;;;9.88;5.30;;;12.80;99.90;;;;;;5095028;28;20031;-77
2022/06/07 03:48:55;;;;;;;10.60;4.30;;;12.80;99.90;;;;;;5095162;28;20397;-77
2022/06/07 03:51:25;;;;;;;9.05;4.78;;;13.50;99.90;;;;;;5094887;28;20472;-77
2022/06/07 03:53:51;;;;;;;8.00;3.97;;;13.10;99.90;;;;;;5095138;28;20031;-77
2022/06/07 03:56:17;;;;;;;7.47;4.20;;;12.90;99.90;;;;;;5076794;28;20024;-77
2022/06/07 03:58:43;;;;;;;10.77;5.32;;;12.90;99.90;;;;;;5095114;28;20020;-77
2022/06/07 04:01:16;;;;;;;7.25;3.63;;;13.20;99.90;;;;;;5076983;28;20024;-77
2022/06/07 04:03:43;;;;;;;6.72;3.75;;;13.00;99.90;;;;;;5094933;28;20028;-77
2022/06/07 04:06:16;;;;;;;9.32;3.78;;;13.00;99.90;;;;;;5094790;28;20110;-77
2022/06/07 04:08:41;;;;;;;8.25;4.15;;;13.00;99.90;;;;;;5076755;28;20057;-77
2022/06/07 04:11:11;;;;;;;8.68;3.78;;;13.00;99.90;;;;;;5094872;28;20020;-77
2022/06/07 04:13:37;;;;;;;7.00;3.55;;;13.00;99.90;;;;;;5094785;28;20401;-77
2022/06/07 04:16:12;;;;;;;9.68;3.83;;;13.10;99.90;;;;;;5095256;28;20028;-77
2022/06/07 04:18:38;;;;;;;6.80;3.90;;;13.10;99.90;;;;;;5076906;28;20031;-77
2022/06/07 04:21:05;;;;;;;8.38;3.97;;;13.10;99.90;;;;;;5094678;28;20385;-77
2022/06/07 04:23:31;;;;;;;7.47;3.50;;;13.20;99.90;;;;;;5076429;28;20426;-77
2022/06/07 04:26:04;;;;;;;7.43;3.65;;;13.20;99.90;;;;;;5076406;28;20051;-77
2022/06/07 04:28:29;;;;;;;12.63;4.45;;;13.20;99.90;;;;;;5095076;28;20020;-77
2022/06/07 04:30:55;;;;;;;6.07;3.63;;;13.10;99.90;;;;;;5094454;28;20024;-77
2022/06/07 04:33:20;;;;;;;7.65;4.05;;;13.20;99.90;;;;;;5076092;28;20077;-77
2022/06/07 04:35:46;;;;;;;7.63;3.28;;;13.20;99.90;;;;;;5094286;28;20027;-77
2022/06/07 04:38:12;;;;;;;9.73;4.40;;;13.20;99.90;;;;;;5076171;28;20043;-77
2022/06/07 04:40:40;;;;;;;7.75;3.58;;;13.30;99.90;;;;;;5076164;28;20078;-77
2022/06/07 04:43:07;;;;;;;8.55;3.78;;;13.40;99.90;;;;;;5094404;28;20023;-77
2022/06/07 04:45:33;;;;;;;6.90;2.90;;;13.40;99.90;;;;;;5094292;28;20071;-77
2022/06/07 04:47:58;;;;;;;6.63;3.65;;;13.40;99.90;;;;;;5075951;28;20051;-77
2022/06/07 04:50:24;;;;;;;7.82;4.15;;;13.50;99.90;;;;;;5076183;28;20047;-77
2022/06/07 04:52:50;;;;;;;10.43;5.32;;;13.50;99.90;;;;;;5094414;28;20068;-77
2022/06/07 04:55:16;;;;;;;7.75;3.60;;;13.50;99.90;;;;;;5094316;28;20032;-77
2022/06/07 04:57:43;;;;;;;5.65;3.35;;;13.50;99.90;;;;;;5075749;28;20064;-79
2022/06/07 05:00:14;;;;;;;10.40;3.58;;;13.50;99.90;;;;;;5075941;28;20070;-77
2022/06/07 05:02:42;;;;;;;9.57;4.03;;;13.50;99.90;;;;;;5093692;28;20456;-77
2022/06/07 05:05:08;;;;;;;7.40;3.58;;;13.50;99.90;;;;;;5075619;28;20031;-77
2022/06/07 05:07:33;;;;;;;6.97;3.50;;;13.50;99.90;;;;;;5075661;28;20388;-77
2022/06/07 05:09:59;;;;;;;7.35;3.97;;;13.60;99.90;;;;;;5093767;28;20013;-78
2022/06/07 05:12:24;;;;;;;7.63;3.35;;;13.60;99.90;;;;;;5075783;28;20027;-77
2022/06/07 05:14:50;;;;;;;6.78;3.40;;;13.60;99.90;;;;;;5093862;28;20020;-77
2022/06/07 05:17:16;;;;;;;7.40;3.88;;;13.60;99.90;;;;;;5093639;28;20380;-77
2022/06/07 05:19:42;;;;;;;7.75;3.88;;;13.60;99.90;;;;;;5075623;28;20032;-77
2022/06/07 05:22:08;;;;;;;7.50;3.95;;;13.70;99.90;;;;;;5093680;28;20028;-77
2022/06/07 05:24:35;;;;;;;8.40;3.55;;;13.70;99.90;;;;;;5093702;28;20470;-77
2022/06/07 05:27:03;;;;;;;7.03;3.90;;;13.70;99.90;;;;;;5093867;28;20017;-77
2022/06/07 05:29:43;;;;;;;6.65;3.08;;;13.80;99.90;;;;;;5075533;28;20020;-77
2022/06/07 05:32:08;;;;;;;7.13;3.45;;;13.80;99.90;;;;;;5093596;28;20012;-77
2022/06/07 05:34:34;;;;;;;6.38;3.75;;;13.80;99.90;;;;;;5075864;28;20107;-77
2022/06/07 05:37:00;;;;;;;8.10;3.42;;;13.90;99.90;;;;;;5093346;28;20021;-77
2022/06/07 05:39:28;;;;;;;9.00;4.03;;;13.90;99.90;;;;;;5094320;28;20028;-77
2022/06/07 05:41:57;;;;;;;9.10;4.13;;;14.00;99.90;;;;;;5075638;28;20091;-77
2022/06/07 05:44:24;;;;;;;;;;;14.10;99.90;;;;;;5076181;28;20031;-78
2022/06/07 05:46:50;;;;;;;12.30;4.20;;;14.80;99.90;;;;;;5076013;28;19912;-77
2022/06/07 05:49:16;;;;;;;5.95;3.35;;;14.10;99.90;;;;;;5094001;28;20020;-77
2022/06/07 05:51:42;;;;;;;7.68;3.55;;;14.30;99.90;;;;;;5093837;28;20031;-78
2022/06/07 05:54:09;;;;;;;7.90;3.55;;;15.50;99.90;;;;;;5075673;28;20020;-78
2022/06/07 05:56:35;;;;;;;9.15;3.97;;;14.40;99.90;;;;;;5093731;28;20027;-78
2022/06/07 05:59:01;;;;;;;6.00;3.40;;;14.50;99.90;;;;;;5075298;28;20020;-78
2022/06/07 06:01:27;;;;;;;6.43;3.03;;;14.60;99.90;;;;;;5093688;28;20059;-77
2022/06/07 06:03:55;;;;;;;7.95;4.05;;;14.60;99.90;;;;;;5093883;28;20028;-77
2022/06/07 06:06:22;;;;;;;8.02;3.65;;;14.70;99.90;;;;;;5093739;28;20494;-77
2022/06/07 06:11:36;;;;;;;6.03;2.92;;;14.70;99.90;;;;;;5094602;28;20635;-76
2022/06/07 06:14:02;;;;;;;5.65;2.78;;;14.70;99.90;;;;;;5096693;28;20472;-77
2022/06/07 06:16:28;;;;;;;5.82;2.95;;;14.70;99.90;;;;;;5097901;28;20485;-78
2022/06/07 06:18:57;;;;;;;7.32;2.42;;;14.70;99.90;;;;;;5097565;28;20031;-78
2022/06/07 06:21:26;;;;;;;8.18;2.70;;;15.00;99.90;;;;;;5079690;28;20028;-77
2022/06/07 06:23:52;;;;;;;;;;;14.60;99.90;;;;;;5079002;28;20473;-77
2022/06/07 06:26:19;;;;;;;5.75;3.25;;;14.80;99.90;;;;;;5096615;28;19910;-77
2022/06/07 06:28:45;;;;;;;7.80;3.40;;;14.80;99.90;;;;;;5097783;28;20031;-78
2022/06/07 06:31:12;;;;;;;6.07;3.28;;;14.70;99.90;;;;;;5078627;28;20028;-77
2022/06/07 06:33:40;;;;;;;9.18;3.25;;;14.70;99.90;;;;;;5078479;28;20020;-77
2022/06/07 06:36:09;;;;;;;7.25;3.42;;;14.90;99.90;;;;;;5079041;28;20024;-77
2022/06/07 06:38:35;;;;;;;10.93;3.55;;;14.80;99.90;;;;;;5078646;28;20491;-77
2022/06/07 06:41:12;;;;;;;7.25;3.55;;;14.80;99.90;;;;;;5096596;28;20024;-77
2022/06/07 06:43:38;;;;;;;5.50;3.22;;;14.70;99.90;;;;;;5096696;28;20035;-77
2022/06/07 06:46:15;;;;;;;6.78;2.97;;;14.80;99.90;;;;;;5096386;28;20020;-78
2022/06/07 06:48:43;;;;;;;5.03;2.88;;;15.00;99.90;;;;;;5096858;28;20028;-77
2022/06/07 06:51:10;;;;;;;4.97;2.45;;;15.10;99.90;;;;;;5078257;28;20481;-77
2022/06/07 06:53:36;;;;;;;4.97;2.10;;;15.10;99.90;;;;;;5078721;28;20024;-78
2022/06/07 06:56:03;;;;;;;4.80;1.77;;;15.10;99.90;;;;;;5096646;28;20380;-77
2022/06/07 06:58:28;;;;;;;4.28;2.22;;;15.30;99.90;;;;;;5096157;28;20024;-78
2022/06/07 07:01:06;;;;;;;3.20;1.40;;;15.50;99.90;;;;;;5096611;28;20074;-77
2022/06/07 07:03:33;;;;;;;4.68;2.47;;;15.50;99.90;;;;;;5096666;28;20078;-77
2022/06/07 07:06:03;;;;;;;4.75;2.22;;;15.60;99.90;;;;;;5078018;28;20024;-78
2022/06/07 07:08:28;;;;;;;4.60;1.88;;;15.60;99.90;;;;;;5078176;28;20027;-77
2022/06/07 07:11:12;;;;;;;3.20;1.90;;;15.60;99.90;;;;;;5096226;28;20028;-77
2022/06/07 07:13:38;;;;;;;3.75;2.15;;;15.60;99.90;;;;;;5096520;28;20035;-77
2022/06/07 07:16:10;;;;;;;7.63;2.33;;;15.60;99.90;;;;;;5096228;28;20016;-77
2022/06/07 07:18:36;;;;;;;6.07;2.33;;;15.80;99.90;;;;;;5078028;28;20032;-77
2022/06/07 07:21:07;;;;;;;6.28;2.17;;;15.70;99.90;;;;;;5096049;28;20035;-77
2022/06/07 07:23:35;;;;;;;5.15;1.75;;;15.70;99.90;;;;;;5095864;28;20153;-78
2022/06/07 07:26:13;;;;;;;5.80;2.05;;;15.80;99.90;;;;;;5077060;28;20024;-77
2022/06/07 07:28:40;;;;;;;5.68;1.95;;;15.90;99.90;;;;;;5095873;28;20062;-77
2022/06/07 07:31:11;;;;;;;5.82;1.80;;;15.90;99.90;;;;;;5077748;28;20036;-77
2022/06/07 07:33:37;;;;;;;3.63;1.98;;;15.90;99.90;;;;;;5077751;28;20024;-77
2022/06/07 07:36:05;;;;;;;2.72;1.00;;;16.20;99.90;;;;;;5077375;28;20028;-77
2022/06/07 07:38:31;;;;;;;7.68;2.35;;;16.10;99.90;;;;;;5095814;28;20020;-78
2022/06/07 07:40:57;;;;;;;4.15;1.70;;;16.30;99.90;;;;;;5077660;28;20500;-77
2022/06/07 07:43:22;;;;;;;5.32;1.63;;;16.50;99.90;;;;;;5095362;28;20032;-77
2022/06/07 07:45:53;;;;;;;3.28;1.88;;;16.60;99.90;;;;;;5098490;28;20032;-78
2022/06/07 07:48:19;;;;;;;3.67;1.85;;;16.60;99.90;;;;;;5095405;28;20028;-78
2022/06/07 07:50:46;;;;;;;5.05;2.63;;;16.90;99.90;;;;;;5095382;28;20027;-78
2022/06/07 07:53:12;;;;;;;4.88;2.22;;;16.80;99.90;;;;;;5077331;28;20017;-78
2022/06/07 07:55:46;;;;;;;3.55;1.90;;;16.70;99.90;;;;;;5077398;28;20442;-77
2022/06/07 07:58:12;;;;;;;7.18;2.42;;;16.60;99.90;;;;;;5095220;28;20027;-77
2022/06/07 08:00:45;;;;;;;5.65;2.35;;;16.70;99.90;;;;;;5077116;28;20012;-77
2022/06/07 08:03:11;;;;;;;6.45;1.90;;;16.70;99.90;;;;;;5095590;28;20020;-77
2022/06/07 08:05:38;;;;;;;3.63;2.22;;;16.60;99.90;;;;;;5077280;28;20387;-78
2022/06/07 08:08:04;;;;;;;5.03;2.28;;;16.50;99.90;;;;;;5076872;28;20051;-78
2022/06/07 08:10:29;;;;;;;5.30;2.58;;;16.50;99.90;;;;;;5095932;28;20520;-78
2022/06/07 08:12:56;;;;;;;4.63;2.55;;;16.50;99.90;;;;;;5094968;28;20017;-77
2022/06/07 08:15:23;;;;;;;5.63;2.00;;;16.60;99.90;;;;;;5076860;28;20046;-77
2022/06/07 08:17:49;;;;;;;5.05;2.03;;;16.50;99.90;;;;;;5076960;28;20020;-77
2022/06/07 08:20:15;;;;;;;4.05;1.88;;;16.50;99.90;;;;;;5078213;28;20024;-77
2022/06/07 08:22:41;;;;;;;3.88;1.83;;;16.50;99.90;;;;;;5076485;28;20115;-77
2022/06/07 08:25:10;;;;;;;5.70;1.95;;;16.50;99.90;;;;;;5094457;28;20078;-77
2022/06/07 08:27:36;;;;;;;3.58;2.05;;;16.40;99.90;;;;;;5076619;28;20077;-77
2022/06/07 08:30:04;;;;;;;3.75;1.95;;;16.40;99.90;;;;;;5077606;28;20020;-78
2022/06/07 08:32:30;;;;;;;4.07;1.80;;;16.30;99.90;;;;;;5076604;28;20024;-77
2022/06/07 08:37:40;;;;;;;5.00;1.67;;;16.80;99.90;;;;;;5094979;28;20065;-78
2022/06/07 08:40:14;;;;;;;4.20;2.30;;;16.20;99.90;;;;;;5095174;28;20028;-78
2022/06/07 08:42:54;;;;;;;2.72;1.83;;;16.20;99.90;;;;;;5076231;28;20051;-77
2022/06/07 08:45:32;;;;;;;4.30;2.22;;;16.30;99.90;;;;;;5075985;28;20106;-77
2022/06/07 08:48:01;;;;;;;6.38;2.40;;;16.20;99.90;;;;;;5094394;28;20101;-78
2022/06/07 08:50:29;;;;;;;4.65;1.73;;;16.20;99.90;;;;;;5094193;28;20020;-77
2022/06/07 08:53:16;;;;;;;5.28;1.70;;;16.30;99.90;;;;;;5094792;28;20479;-78
2022/06/07 08:55:59;;;;;;;3.70;1.58;;;16.40;99.90;;;;;;5076261;28;20019;-77
2022/06/07 08:58:33;;;;;;;6.35;2.10;;;16.60;99.90;;;;;;5094722;28;20378;-77
2022/06/07 09:01:07;;;;;;;11.10;2.78;;;16.70;99.90;;;;;;5077307;28;20016;-78
2022/06/07 09:03:47;;;;;;;5.65;2.58;;;16.70;99.90;;;;;;5076791;28;20104;-78
2022/06/07 09:06:30;;;;;;;3.97;1.95;;;16.80;99.90;;;;;;5075981;28;20486;-78
2022/06/07 09:09:16;;;;;;;3.40;2.13;;;16.90;99.90;;;;;;5112588;27;20380;-77
2022/06/07 09:14:39;;;;;;;6.20;1.95;;;17.20;99.90;;;;;;5115552;28;20022;-78
2022/06/07 09:17:12;;;;;;;6.82;2.35;;;17.20;99.90;;;;;;5121325;28;20127;-79
2022/06/07 09:19:38;;;;;;;2.90;1.70;;;17.30;99.90;;;;;;5119832;28;20019;-78
2022/06/07 09:22:13;;;;;;;7.53;3.08;;;17.30;99.90;;;;;;5119133;28;20076;-78
2022/06/07 09:24:41;;;;;;;4.68;1.77;;;17.30;99.90;;;;;;5119907;28;20020;-79
2022/06/07 09:27:19;;;;;;;3.88;2.45;;;17.40;99.90;;;;;;5119429;28;20400;-78
2022/06/07 09:29:54;;;;;;;9.02;3.45;;;17.30;99.90;;;;;;5119925;28;20020;-79
2022/06/07 09:32:23;;;;;;;4.50;2.17;;;17.50;99.90;;;;;;5117087;28;20384;-78
2022/06/07 09:34:58;;;;;;;4.25;2.10;;;17.70;99.90;;;;;;5118673;28;20036;-78
2022/06/07 09:37:40;;;;;;;3.83;2.30;;;18.10;99.90;;;;;;5121494;28;20027;-79
2022/06/07 09:40:31;;;;;;;6.70;1.90;;;18.20;99.90;;;;;;5121729;28;20048;-78
2022/06/07 09:43:09;;;;;;;4.85;2.30;;;18.40;99.90;;;;;;5123260;28;20384;-79
2022/06/07 09:46:19;;;;;;;5.78;3.10;;;18.70;99.90;;;;;;5120126;28;20096;-79
2022/06/07 09:48:45;;;;;;;4.22;2.00;;;18.90;99.90;;;;;;5122208;27;20129;-79
2022/06/07 09:51:18;;;;;;;5.20;1.60;;;18.90;99.90;;;;;;5120198;28;20020;-79
2022/06/07 09:54:03;;;;;;;2.70;1.65;;;19.10;99.90;;;;;;5120491;28;20024;-79
2022/06/07 09:56:37;;;;;;;3.80;1.48;;;19.20;99.90;;;;;;5121509;28;20016;-79
2022/06/07 09:59:24;;;;;;;2.25;1.58;;;19.10;99.90;;;;;;5120516;28;20028;-78
2022/06/07 10:02:14;;;;;;;1.63;1.27;;;18.80;99.90;;;;;;5121490;28;20098;-79
2022/06/07 10:05:20;;;;;;;1.73;0.85;;;18.70;99.90;;;;;;5120963;28;20083;-79
2022/06/07 10:07:57;;;;;;;4.22;1.45;;;19.00;99.90;;;;;;5109012;28;20040;-79
2022/06/07 10:10:37;;;;;;;4.13;1.35;;;19.00;99.90;;;;;;5118295;28;20036;-79
2022/06/07 10:13:21;;;;;;;5.75;1.85;;;19.00;99.90;;;;;;5121018;28;20058;-78
2022/06/07 10:16:01;;;;;;;1.67;1.00;;;18.90;99.90;;;;;;5120450;28;20020;-79
2022/06/07 10:18:45;;;;;;;3.80;2.13;;;19.00;99.90;;;;;;5119007;28;20016;-78
2022/06/07 10:21:23;;;;;;;2.53;0.73;;;19.00;99.90;;;;;;5107959;28;20020;-79
2022/06/07 10:24:02;;;;;;;3.53;1.67;;;19.20;99.90;;;;;;5107960;28;20048;-79
2022/06/07 10:26:45;;;;;;;2.78;1.40;;;19.40;99.90;;;;;;5107549;28;20032;-79
2022/06/07 10:29:31;;;;;;;3.28;1.17;;;19.50;99.90;;;;;;5106090;28;20020;-78
2022/06/07 10:32:05;;;;;;;4.75;1.08;;;19.50;99.90;;;;;;5109171;28;20024;-79
2022/06/07 10:34:37;;;;;;;4.93;0.90;;;19.30;99.90;;;;;;5107710;28;20084;-78
2022/06/07 10:37:28;;;;;;;1.75;1.35;;;19.10;99.90;;;;;;5107581;28;20017;-78
2022/06/07 10:40:08;;;;;;;5.00;1.20;;;18.80;99.90;;;;;;5107907;28;20049;-78
2022/06/07 10:42:52;;;;;;;4.28;1.73;;;18.60;99.90;;;;;;5106631;28;20385;-78
2022/06/07 10:45:25;;;;;;;4.85;1.88;;;18.40;99.90;;;;;;5107908;28;20099;-79
2022/06/07 10:48:26;;;;;;;2.72;1.50;;;18.30;99.90;;;;;;5068827;22;20048;-77
2022/06/07 10:51:06;;;;;;;3.72;2.17;;;18.30;99.90;;;;;;5034527;28;20104;-77
2022/06/07 10:53:42;;;;;;;4.57;2.33;;;18.20;99.90;;;;;;5035691;28;20030;-77
2022/06/07 10:56:14;;;;;;;4.65;2.10;;;18.20;99.90;;;;;;5049419;28;20025;-77
2022/06/07 10:58:45;;;;;;;5.53;2.78;;;18.20;99.90;;;;;;5054154;28;20393;-77
2022/06/07 11:01:17;;;;;;;4.82;2.45;;;21.80;99.90;;;;;;5054219;28;20032;-77
2022/06/07 11:09:19;;;;;;;3.55;2.35;;;20.80;99.90;;;;;;5054161;28;20070;-77
2022/06/07 11:09:54;;;;;;;6.07;2.20;;;18.70;99.90;;;;;;5056032;28;20428;-76
2022/06/07 11:12:26;;;;;;;5.47;2.30;;;18.50;99.90;;;;;;5053913;28;20013;-76
2022/06/07 11:15:09;;;;;;;5.82;2.78;;;19.20;99.90;;;;;;5053900;28;20492;-76
2022/06/07 11:18:08;;;;;;;8.18;2.72;;;19.20;99.90;;;;;;5055016;28;20028;-76
2022/06/07 11:20:36;;;;;;;4.68;2.50;;;19.00;99.90;;;;;;5051920;28;20037;-76
2022/06/07 11:23:15;;;;;;;5.05;2.53;;;18.50;99.90;;;;;;5053936;28;20029;-76
2022/06/07 11:25:43;;;;;;;4.32;2.03;;;18.50;99.90;;;;;;5055434;28;20519;-77
2022/06/07 11:28:23;;;;;;;5.45;2.00;;;22.70;99.90;;;;;;5054976;28;20444;-77
2022/06/07 11:30:53;;;;;;;6.68;1.05;;;18.40;99.90;;;;;;5052670;28;20074;-77
2022/06/07 11:33:47;;;;;;;3.22;1.63;;;21.60;99.90;;;;;;5055436;28;20035;-77
2022/06/07 11:36:12;;;;;;;3.75;2.22;;;18.60;99.90;;;;;;5055041;28;20032;-77
2022/06/07 11:39:19;;;;;;;4.00;2.55;;;18.50;99.90;;;;;;5053527;28;20394;-77
2022/06/07 11:41:48;;;;;;;6.47;2.93;;;18.70;99.90;;;;;;5053487;28;20029;-76
2022/06/07 11:44:17;;;;;;;6.28;2.63;;;22.30;99.90;;;;;;5054657;28;20052;-76
2022/06/07 11:46:51;;;;;;;4.18;2.20;;;20.40;99.90;;;;;;5053128;28;20044;-76
2022/06/07 11:49:20;;;;;;;7.55;2.88;;;21.40;99.90;;;;;;5054604;28;20079;-77
2022/06/07 11:52:11;;;;;;;7.88;2.97;;;18.50;99.90;;;;;;5054420;28;20428;-77
2022/06/07 11:54:46;;;;;;;4.53;2.90;;;18.50;99.90;;;;;;5053132;28;20048;-76
2022/06/07 11:57:31;;;;;;;3.95;2.65;;;22.40;99.90;;;;;;5053438;28;20029;-76
2022/06/07 12:00:00;;;;;;;4.72;2.50;;;18.20;99.90;;;;;;5054325;28;20083;-76
2022/06/07 12:02:28;;;;;;;2.70;1.70;;;21.20;99.90;;;;;;5054540;28;20028;-76
2022/06/07 12:05:00;;;;;;;4.60;2.13;;;20.90;99.90;;;;;;5052958;28;20033;-76
2022/06/07 12:07:38;;;;;;;3.13;1.23;;;19.20;99.90;;;;;;5052940;28;20032;-76
2022/06/07 12:10:16;;;;;;;2.97;1.42;;;19.40;99.90;;;;;;5052758;28;20033;-76
2022/06/07 12:13:01;;;;;;;3.90;1.73;;;22.00;99.90;;;;;;5052790;28;20486;-76
2022/06/07 12:15:44;;;;;;;3.13;1.55;;;19.50;99.90;;;;;;5053943;28;20421;-76
2022/06/07 12:18:23;;;;;;;3.30;1.58;;;23.00;99.90;;;;;;5052610;28;20054;-76
2022/06/07 12:21:04;;;;;;;3.85;1.92;;;19.70;99.90;;;;;;5052625;28;20116;-76
2022/06/07 12:23:35;;;;;;;6.38;2.03;;;20.00;99.90;;;;;;5052631;28;20053;-76
2022/06/07 12:26:06;;;;;;;4.25;1.73;;;20.00;99.90;;;;;;5052564;28;20115;-76
2022/06/07 12:28:35;;;;;;;4.65;2.08;;;18.10;99.90;;;;;;5053748;28;20074;-76
2022/06/07 12:31:21;;;;;;;2.58;1.85;;;20.30;99.90;;;;;;5053793;28;20436;-76
2022/06/07 12:33:53;;;;;;;4.82;2.30;;;20.30;99.90;;;;;;5053747;28;20021;-76
2022/06/07 12:36:27;;;;;;;3.67;2.05;;;20.40;99.90;;;;;;5053816;28;20021;-76
2022/06/07 12:38:57;;;;;;;4.30;1.92;;;21.40;99.90;;;;;;5053522;28;20021;-76
2022/06/07 12:41:26;;;;;;;5.72;2.30;;;20.70;99.90;;;;;;5053644;28;20028;-76
2022/06/07 12:43:55;;;;;;;;;;;21.00;99.90;;;;;;5052447;28;20035;-76
2022/06/07 12:46:40;;;;;;;4.32;2.40;;;23.50;99.90;;;;;;5052036;28;19912;-76
2022/06/07 12:49:22;;;;;;;4.25;1.90;;;21.80;99.90;;;;;;5053554;28;20021;-76
2022/06/07 12:52:00;;;;;;;7.55;2.38;;;22.50;99.90;;;;;;5053386;28;20040;-76
2022/06/07 12:54:28;;;;;;;2.97;1.60;;;22.90;99.90;;;;;;5053802;28;20029;-76
2022/06/07 12:56:56;;;;;;;3.13;1.40;;;23.40;99.90;;;;;;5053556;28;20424;-76
2022/06/07 12:59:36;;;;;;;;;;;24.00;99.90;;;;;;5053924;28;20394;-76
2022/06/07 13:02:14;;;;;;;3.42;1.70;;;23.60;98.10;;;;;;5049438;28;20285;-78
2022/06/07 13:04:49;;;;;;;4.17;1.93;;;24.20;99.90;;;;;;5053415;28;20021;-78
2022/06/07 13:07:17;;;;;;;3.47;1.35;;;24.10;92.20;;;;;;5053326;28;20287;-78
2022/06/07 13:09:48;;;;;;;3.35;1.63;;;24.10;94.60;;;;;;5055536;28;20378;-76
2022/06/07 13:12:22;;;;;;;4.15;1.85;;;24.20;96.30;;;;;;5053045;28;20023;-78
2022/06/07 13:14:48;;;;;;;2.97;2.03;;;24.10;95.20;;;;;;5060072;28;20039;-79
2022/06/07 13:17:30;;;;;;;3.45;1.67;;;24.10;90.90;;;;;;5057570;28;20029;-79
2022/06/07 13:19:56;;;;;;;3.38;2.20;;;24.10;92.00;;;;;;5055574;28;20104;-79
2022/06/07 13:22:23;;;;;;;2.85;1.15;;;23.80;93.20;;;;;;5033795;28;20076;-78
2022/06/07 13:24:56;;;;;;;6.07;1.73;;;23.60;95.20;;;;;;5043265;28;20040;-79